Time;durP1;ratioP1;P1;durP2;ratioP2;P2;SDS_P1;SDS_P2;PMS_P1;PMS_P2;Temp;Humidity;BMP_temperature;BMP_pressure;BME280_temperature;BME280_humidity;BME280_pressure;Samples;Min_cycle;Max_cycle;Signal;HPM_P1;HPM_P2
2022/06/07 00:01:40;;;;;;;10.13;6.85;;;;;;;17.42;60.73;101271.59;4967733;28;114748;-62
2022/06/07 00:04:07;;;;;;;8.95;6.32;;;;;;;17.42;60.80;101271.59;4969165;28;114317;-62
2022/06/07 00:06:34;;;;;;;9.98;6.78;;;;;;;17.43;60.89;101265.28;4969556;28;123997;-62
2022/06/07 00:09:02;;;;;;;14.05;6.90;;;;;;;17.43;60.98;101262.59;4969161;28;124081;-63
2022/06/07 00:11:29;;;;;;;11.18;6.72;;;;;;;17.42;61.03;101259.09;4970585;28;114938;-63
2022/06/07 00:13:56;;;;;;;12.10;7.22;;;;;;;17.41;61.00;101253.81;4967708;28;113864;-62
2022/06/07 00:16:23;;;;;;;11.75;7.32;;;;;;;17.41;60.84;101260.03;4969817;28;124633;-63
2022/06/07 00:18:50;;;;;;;14.00;7.90;;;;;;;17.39;61.07;101255.75;4969642;28;123117;-62
2022/06/07 00:21:17;;;;;;;13.40;8.40;;;;;;;17.39;61.04;101255.75;4970877;28;114788;-62
2022/06/07 00:23:45;;;;;;;11.70;8.05;;;;;;;17.40;61.00;101246.75;4970295;28;113722;-62
2022/06/07 00:26:13;;;;;;;11.52;8.73;;;;;;;17.38;61.15;101254.03;4965232;28;124065;-63
2022/06/07 00:28:40;;;;;;;11.90;9.25;;;;;;;17.38;61.25;101251.34;4970768;28;123734;-62
2022/06/07 00:31:07;;;;;;;13.68;9.30;;;;;;;17.37;61.33;101242.47;4969509;28;115491;-62
2022/06/07 00:33:35;;;;;;;13.43;9.48;;;;;;;17.36;61.19;101239.88;4970265;28;114320;-62
2022/06/07 00:36:02;;;;;;;15.82;9.55;;;;;;;17.35;61.34;101240.81;4970537;28;124647;-62
2022/06/07 00:38:30;;;;;;;16.63;10.02;;;;;;;17.32;61.26;101240.06;4969005;28;122835;-62
2022/06/07 00:40:58;;;;;;;14.25;10.00;;;;;;;17.32;61.41;101240.06;4966251;28;114576;-62
2022/06/07 00:43:25;;;;;;;16.48;11.00;;;;;;;17.31;61.40;101227.66;4971820;28;113781;-62
2022/06/07 00:45:53;;;;;;;16.67;10.55;;;;;;;17.30;61.28;101231.28;4965931;28;124310;-62
2022/06/07 00:48:21;;;;;;;16.80;11.55;;;;;;;17.30;61.57;101231.28;4970779;28;123242;-62
2022/06/07 00:51:00;;;;;;;19.75;11.93;;;;;;;17.30;61.42;101231.28;4970725;28;113291;-62
2022/06/07 00:53:31;;;;;;;18.73;11.52;;;;;;;17.31;61.29;101225.00;4970649;28;114127;-63
2022/06/07 00:56:12;;;;;;;19.35;12.32;;;;;;;17.30;61.43;101225.94;4967475;28;123222;-62
2022/06/07 00:58:39;;;;;;;21.83;12.00;;;;;;;17.29;61.43;101213.53;4970470;28;123202;-62
2022/06/07 01:01:07;;;;;;;20.73;12.27;;;;;;;17.30;61.43;101215.22;4970818;28;113451;-62
2022/06/07 01:03:38;;;;;;;17.88;12.52;;;;;;;17.30;61.30;101217.06;4971604;28;113536;-62
2022/06/07 01:11:39;;;;;;;20.48;12.80;;;;;;;17.26;61.58;101229.78;4972076;28;114307;-63
2022/06/07 01:14:06;;;;;;;21.52;13.02;;;;;;;17.25;61.53;101222.72;4969571;28;113314;-62
2022/06/07 01:16:34;;;;;;;21.48;13.20;;;;;;;17.25;61.89;101221.84;4968092;28;123136;-62
2022/06/07 01:19:02;;;;;;;20.70;13.57;;;;;;;17.25;61.68;101217.38;4970074;28;123018;-62
2022/06/07 01:21:37;;;;;;;19.02;12.40;;;;;;;17.26;61.55;101219.06;4970053;28;114673;-62
2022/06/07 01:24:08;;;;;;;19.42;13.05;;;;;;;17.26;61.50;101218.22;4970680;28;114132;-62
2022/06/07 01:26:43;;;;;;;22.13;12.87;;;;;;;17.26;61.52;101208.38;4969950;28;126307;-62
2022/06/07 01:29:12;;;;;;;20.70;13.38;;;;;;;17.27;61.67;101212.78;4970430;28;124038;-62
2022/06/07 01:31:41;;;;;;;17.77;12.05;;;;;;;17.28;61.88;101206.44;4969248;28;113408;-63
2022/06/07 01:34:10;;;;;;;19.23;13.15;;;;;;;17.29;61.66;101208.16;4970828;28;113382;-63
2022/06/07 01:36:37;;;;;;;19.23;12.65;;;;;;;17.28;61.68;101206.44;4967251;28;123821;-63
2022/06/07 01:41:56;;;;;;;18.23;12.35;;;;;;;17.27;61.48;101188.69;4965905;28;114006;-63
2022/06/07 01:44:42;;;;;;;20.45;12.43;;;;;;;17.25;61.67;101195.97;4970651;28;116168;-62
2022/06/07 01:47:12;;;;;;;19.35;12.02;;;;;;;17.25;61.60;101187.94;4969200;28;123450;-62
2022/06/07 01:49:48;;;;;;;17.23;12.10;;;;;;;17.26;61.67;101186.94;4969011;28;125582;-62
2022/06/07 01:52:18;;;;;;;16.02;11.48;;;;;;;17.25;61.54;101190.59;4970522;28;113431;-62
2022/06/07 01:54:48;;;;;;;15.63;11.05;;;;;;;17.26;61.52;101176.25;4968262;28;114143;-63
2022/06/07 01:57:21;;;;;;;19.17;11.95;;;;;;;17.26;61.69;101176.25;4970274;28;123219;-62
2022/06/07 01:59:51;;;;;;;17.15;11.63;;;;;;;17.26;61.52;101181.59;4967350;28;126423;-63
2022/06/07 02:02:24;;;;;;;17.80;11.25;;;;;;;17.26;61.69;101176.25;4969584;28;113771;-63
2022/06/07 02:04:52;;;;;;;17.48;10.95;;;;;;;17.26;61.50;101170.03;4968236;28;114017;-63
2022/06/07 02:07:21;;;;;;;17.13;11.23;;;;;;;17.25;61.69;101169.19;4969594;28;123719;-62
2022/06/07 02:09:55;;;;;;;17.52;11.25;;;;;;;17.25;61.62;101166.50;4964373;28;124190;-62
2022/06/07 02:12:23;;;;;;;15.85;10.98;;;;;;;17.25;61.59;101173.66;4969459;28;114266;-63
2022/06/07 02:14:50;;;;;;;17.17;11.30;;;;;;;17.23;61.47;101160.38;4966164;28;114087;-63
2022/06/07 02:17:18;;;;;;;15.13;10.65;;;;;;;17.21;61.55;101162.31;4968400;28;123884;-62
2022/06/07 02:19:57;;;;;;;16.40;10.77;;;;;;;17.21;61.62;101162.31;4966942;28;122969;-62
2022/06/07 02:22:24;;;;;;;15.20;10.27;;;;;;;17.21;61.52;101156.94;4968400;28;113631;-63
2022/06/07 02:24:51;;;;;;;13.35;9.43;;;;;;;17.20;61.52;101163.28;4967117;28;113635;-63
2022/06/07 02:27:21;;;;;;;14.55;10.07;;;;;;;17.20;61.56;101160.59;4969110;28;125183;-63
2022/06/07 02:29:52;;;;;;;18.42;10.43;;;;;;;17.19;61.50;101164.22;4968971;28;123533;-63
2022/06/07 02:32:28;;;;;;;13.35;9.50;;;;;;;17.18;61.54;101156.31;4966497;28;114226;-62
2022/06/07 02:34:59;;;;;;;13.95;9.50;;;;;;;17.17;61.41;101155.44;4968526;28;113686;-63
2022/06/07 02:37:28;;;;;;;13.32;9.50;;;;;;;17.15;61.29;101154.69;4966672;28;124643;-63
2022/06/07 02:39:56;;;;;;;13.88;9.20;;;;;;;17.13;61.35;101153.94;4967636;28;124529;-62
2022/06/07 02:42:26;;;;;;;12.40;9.05;;;;;;;17.12;61.33;101153.09;4969489;28;114886;-62
2022/06/07 02:44:54;;;;;;;15.35;9.18;;;;;;;17.12;61.17;101154.91;4968305;28;114223;-63
2022/06/07 02:47:21;;;;;;;11.35;8.73;;;;;;;17.10;61.19;101144.31;4968956;28;123056;-63
2022/06/07 02:49:54;;;;;;;14.25;8.68;;;;;;;17.09;61.28;101141.75;4968463;28;123166;-63
2022/06/07 02:52:21;;;;;;;10.80;8.20;;;;;;;17.09;61.11;101147.09;4968679;28;113288;-63
2022/06/07 02:55:02;;;;;;;13.05;8.27;;;;;;;17.07;61.13;101143.66;4984589;28;112558;-63
2022/06/07 02:57:30;;;;;;;13.40;8.30;;;;;;;17.06;61.10;101141.94;4968315;28;123223;-63
2022/06/07 03:00:07;;;;;;;11.45;8.20;;;;;;;17.05;61.11;101145.59;4968429;28;123840;-62
2022/06/07 03:02:35;;;;;;;11.77;7.60;;;;;;;17.03;61.12;101143.00;4964746;28;114280;-63
2022/06/07 03:05:03;;;;;;;13.20;7.78;;;;;;;17.01;61.17;101144.06;4969069;28;114936;-63
2022/06/07 03:07:30;;;;;;;13.20;7.65;;;;;;;17.00;60.93;101147.72;4967422;28;124871;-63
2022/06/07 03:09:57;;;;;;;9.10;7.28;;;;;;;16.98;61.06;101149.63;4968887;28;122957;-62
2022/06/07 03:12:24;;;;;;;10.20;7.28;;;;;;;16.95;60.97;101150.69;4969009;28;113320;-63
2022/06/07 03:14:52;;;;;;;10.23;7.53;;;;;;;16.93;60.82;101142.78;4969958;28;113310;-63
2022/06/07 03:17:19;;;;;;;12.25;7.55;;;;;;;16.91;60.90;101144.72;4966563;28;123399;-63
2022/06/07 03:19:46;;;;;;;13.45;7.03;;;;;;;16.91;60.91;101144.72;4967450;28;123183;-63
2022/06/07 03:22:14;;;;;;;10.88;6.95;;;;;;;16.91;60.87;101150.06;4968476;28;114048;-63
2022/06/07 03:24:43;;;;;;;9.75;6.63;;;;;;;16.90;60.87;101153.69;4964671;28;113255;-62
2022/06/07 03:27:12;;;;;;;10.48;6.90;;;;;;;16.89;60.67;101157.28;4972231;28;124290;-63
2022/06/07 03:29:40;;;;;;;8.82;6.13;;;;;;;16.88;60.62;101144.91;4985747;28;123086;-62
2022/06/07 03:32:11;;;;;;;10.38;6.65;;;;;;;16.86;60.48;101157.53;4972026;28;113596;-63
2022/06/07 03:34:39;;;;;;;9.65;6.15;;;;;;;16.85;60.64;101161.13;4987805;28;113935;-63
2022/06/07 03:37:07;;;;;;;9.05;6.47;;;;;;;16.84;60.54;101158.56;4971424;28;123555;-62
2022/06/07 03:39:34;;;;;;;10.85;6.35;;;;;;;16.83;60.71;101163.06;4966463;28;122976;-63
2022/06/07 03:42:02;;;;;;;10.65;6.15;;;;;;;16.82;60.42;101169.41;4970480;28;113563;-62
2022/06/07 03:44:31;;;;;;;10.43;6.45;;;;;;;16.81;60.71;101164.94;4956951;28;113132;-63
2022/06/07 03:47:08;;;;;;;10.13;6.47;;;;;;;16.79;60.59;101172.22;4971271;28;123182;-63
2022/06/07 03:49:35;;;;;;;8.55;5.85;;;;;;;16.79;60.61;101171.38;4968116;28;124134;-63
2022/06/07 03:52:03;;;;;;;7.55;5.93;;;;;;;16.78;60.55;101170.50;4972167;28;114532;-63
2022/06/07 03:54:35;;;;;;;11.18;5.80;;;;;;;16.78;60.56;101175.00;4973047;28;114009;-63
2022/06/07 03:57:03;;;;;;;11.25;5.90;;;;;;;16.79;60.62;101172.22;4953877;28;123745;-63
2022/06/07 03:59:30;;;;;;;7.68;5.75;;;;;;;16.81;60.49;101181.00;4971130;28;122963;-63
2022/06/07 04:01:58;;;;;;;10.20;5.32;;;;;;;16.82;60.43;101174.75;4970920;28;114288;-63
2022/06/07 04:04:25;;;;;;;10.95;6.20;;;;;;;16.82;60.37;101177.41;4971826;28;113028;-62
2022/06/07 04:09:46;;;;;;;7.90;5.22;;;;;;;16.82;60.50;101177.41;4985432;28;123619;-63
2022/06/07 04:12:20;;;;;;;7.07;5.25;;;;;;;16.82;60.49;101188.13;4985583;28;117266;-63
2022/06/07 04:14:50;;;;;;;7.28;4.80;;;;;;;16.81;60.49;101181.00;4971628;28;113072;-63
2022/06/07 04:17:18;;;;;;;7.00;5.05;;;;;;;16.82;60.40;101187.22;4971264;28;123752;-63
2022/06/07 04:19:51;;;;;;;7.05;5.00;;;;;;;16.81;60.32;101183.69;4970914;28;123126;-63
2022/06/07 04:22:20;;;;;;;7.18;5.13;;;;;;;16.81;60.24;101186.34;4987366;28;113806;-63
2022/06/07 04:24:55;;;;;;;6.35;4.60;;;;;;;16.81;60.39;101181.00;4969147;28;113024;-62
2022/06/07 04:27:24;;;;;;;8.73;5.18;;;;;;;16.81;60.42;101186.34;4954997;28;123361;-62
2022/06/07 04:29:55;;;;;;;9.07;5.03;;;;;;;16.81;60.47;101186.34;4971124;28;122535;-62
2022/06/07 04:32:22;;;;;;;8.00;5.70;;;;;;;16.81;60.49;101181.00;4983569;28;113572;-63
2022/06/07 04:34:52;;;;;;;11.20;5.55;;;;;;;16.81;60.45;101183.69;4970206;28;113217;-62
2022/06/07 04:37:21;;;;;;;9.45;5.75;;;;;;;16.82;60.53;101187.22;4982918;28;123784;-63
2022/06/07 04:39:52;;;;;;;11.77;5.63;;;;;;;16.80;60.36;101190.00;4968679;28;123595;-63
2022/06/07 04:42:19;;;;;;;7.15;5.53;;;;;;;16.79;60.52;101188.28;4985750;28;114449;-63
2022/06/07 04:45:06;;;;;;;8.98;5.35;;;;;;;16.80;60.49;101184.66;4956802;28;114712;-63
2022/06/07 04:47:56;;;;;;;11.35;5.57;;;;;;;16.79;60.18;101193.63;4966806;28;124147;-63
2022/06/07 04:50:24;;;;;;;9.45;5.25;;;;;;;16.79;60.34;101193.63;4972077;28;124062;-62
2022/06/07 04:52:51;;;;;;;8.38;5.00;;;;;;;16.80;60.36;101195.34;4971542;28;113173;-62
2022/06/07 04:55:20;;;;;;;11.77;5.43;;;;;;;16.81;60.45;101194.38;4987892;28;113184;-63
2022/06/07 04:57:49;;;;;;;7.68;5.32;;;;;;;16.81;60.42;101198.88;4969911;28;123198;-62
2022/06/07 05:00:19;;;;;;;10.73;5.55;;;;;;;16.81;60.53;101194.38;4983763;28;123646;-63
2022/06/07 05:02:55;;;;;;;10.00;6.00;;;;;;;16.81;60.38;101197.06;4968765;28;112884;-63
2022/06/07 05:05:23;;;;;;;9.70;6.03;;;;;;;16.83;60.48;101200.53;4971655;28;113093;-63
2022/06/07 05:07:51;;;;;;;10.73;6.22;;;;;;;16.85;60.40;101203.09;4969829;28;123142;-63
2022/06/07 05:10:22;;;;;;;9.40;6.03;;;;;;;16.87;60.29;101203.84;4987419;28;123657;-63
2022/06/07 05:12:54;;;;;;;9.15;6.68;;;;;;;16.86;60.32;101205.69;4955856;28;113556;-63
2022/06/07 05:15:25;;;;;;;11.50;7.03;;;;;;;16.86;60.36;101200.31;4969192;28;113088;-63
2022/06/07 05:17:57;;;;;;;11.38;6.78;;;;;;;16.87;60.56;101204.69;4966382;28;123700;-62
2022/06/07 05:20:26;;;;;;;12.82;7.53;;;;;;;16.90;60.49;101204.50;4970217;28;122994;-63
2022/06/07 05:23:02;;;;;;;10.60;7.20;;;;;;;16.93;60.47;101207.00;4968768;28;113604;-62
2022/06/07 05:25:31;;;;;;;12.32;7.05;;;;;;;16.95;60.48;101209.53;4970668;28;113112;-63
2022/06/07 05:27:59;;;;;;;11.07;7.32;;;;;;;16.97;60.51;101201.41;4965373;28;124795;-62
2022/06/07 05:30:30;;;;;;;13.35;7.22;;;;;;;17.00;60.44;101211.94;4967662;28;123085;-62
2022/06/07 05:33:07;;;;;;;13.30;7.60;;;;;;;17.02;60.50;101210.00;4969459;28;117795;-62
2022/06/07 05:35:56;;;;;;;13.30;7.82;;;;;;;17.05;60.55;101209.81;4980149;28;114411;-62
2022/06/07 05:38:24;;;;;;;11.88;7.72;;;;;;;17.08;60.46;101210.47;4967010;28;123625;-62
2022/06/07 05:40:59;;;;;;;12.02;7.88;;;;;;;17.12;60.22;101211.09;4985046;28;122818;-63
2022/06/07 05:43:27;;;;;;;11.68;7.72;;;;;;;17.16;60.30;101211.75;4967968;28;114235;-62
2022/06/07 05:45:59;;;;;;;12.73;7.55;;;;;;;17.19;60.39;101212.41;4968895;28;113197;-62
2022/06/07 05:48:37;;;;;;;15.15;8.38;;;;;;;17.22;60.26;101201.50;4959018;28;123821;-62
2022/06/07 05:51:09;;;;;;;11.43;8.00;;;;;;;17.26;60.31;101203.00;4964704;28;124066;-63
2022/06/07 05:53:36;;;;;;;13.50;7.82;;;;;;;17.32;60.32;101207.94;4987479;28;113180;-62
2022/06/07 05:56:10;;;;;;;11.45;7.60;;;;;;;17.39;60.45;101212.91;4970719;28;113061;-62
2022/06/07 05:58:38;;;;;;;13.32;8.38;;;;;;;17.44;60.36;101206.28;4960509;28;126640;-62
2022/06/07 06:01:08;;;;;;;14.00;8.48;;;;;;;17.49;60.26;101211.31;4969852;28;122865;-62
2022/06/07 06:03:40;;;;;;;16.60;8.75;;;;;;;17.54;60.28;101206.50;4968284;28;113338;-63
2022/06/07 06:06:10;;;;;;;12.80;8.35;;;;;;;17.59;60.23;101208.84;4970067;28;113573;-62
2022/06/07 06:11:34;;;;;;;12.52;8.90;;;;;;;17.69;60.07;101216.16;4975795;28;123653;-62
2022/06/07 06:14:09;;;;;;;16.48;9.30;;;;;;;17.73;60.11;101210.59;4970247;28;117478;-62
2022/06/07 06:16:41;;;;;;;14.32;9.85;;;;;;;17.77;60.14;101212.09;4967139;28;113294;-62
2022/06/07 06:19:12;;;;;;;14.98;10.00;;;;;;;17.82;59.86;101215.28;4968922;28;123355;-61
2022/06/07 06:21:45;;;;;;;17.63;10.13;;;;;;;17.88;60.16;101221.13;4966329;28;122883;-62
2022/06/07 06:24:15;;;;;;;15.68;10.45;;;;;;;17.93;59.78;101218.09;4969382;28;114540;-62
2022/06/07 06:26:44;;;;;;;18.30;10.77;;;;;;;17.99;60.08;101212.34;4967062;28;114303;-62
2022/06/07 06:29:15;;;;;;;18.05;10.70;;;;;;;18.02;60.09;101220.13;4964217;28;123159;-62
2022/06/07 06:31:43;;;;;;;16.48;11.32;;;;;;;18.07;59.90;101220.69;4968621;28;122789;-62
2022/06/07 06:34:13;;;;;;;19.15;11.40;;;;;;;18.14;59.75;101217.56;4966380;28;113633;-62
2022/06/07 06:36:41;;;;;;;16.42;10.85;;;;;;;18.20;59.83;101225.19;4970823;28;114328;-61
2022/06/07 06:39:17;;;;;;;17.40;11.45;;;;;;;18.27;59.99;101215.72;4968120;28;123368;-61
2022/06/07 06:41:48;;;;;;;18.90;12.10;;;;;;;18.34;59.84;101217.00;4969701;28;123111;-61
2022/06/07 06:44:20;;;;;;;15.82;10.88;;;;;;;18.41;59.81;101223.63;4969713;28;113298;-61
2022/06/07 06:46:49;;;;;;;17.08;11.57;;;;;;;18.49;59.91;101221.25;4964531;28;113944;-61
2022/06/07 06:49:20;;;;;;;21.88;12.30;;;;;;;18.56;59.83;101216.31;4963413;28;123110;-61
2022/06/07 06:51:48;;;;;;;19.15;11.02;;;;;;;18.61;59.78;101224.00;4980263;28;123452;-61
2022/06/07 06:54:19;;;;;;;20.17;11.73;;;;;;;18.67;59.47;101228.94;4966250;28;114297;-61
2022/06/07 06:56:56;;;;;;;19.55;11.57;;;;;;;18.72;59.76;101228.59;4969342;28;117248;-61
2022/06/07 06:59:27;;;;;;;17.08;11.88;;;;;;;18.78;59.48;101231.69;4968023;28;123271;-61
2022/06/07 07:01:59;;;;;;;18.58;11.68;;;;;;;18.85;59.37;101233.00;4973424;28;123236;-61
2022/06/07 07:04:31;;;;;;;19.30;12.27;;;;;;;18.92;59.46;101232.53;4960082;28;113266;-62
2022/06/07 07:07:02;;;;;;;21.38;12.23;;;;;;;19.01;59.36;101237.22;4955130;28;113758;-61
2022/06/07 07:09:30;;;;;;;23.67;13.25;;;;;;;19.09;59.35;101229.44;4971359;28;123994;-61
2022/06/07 07:12:02;;;;;;;16.48;12.00;;;;;;;19.18;59.15;101218.03;4972640;28;123427;-62
2022/06/07 07:14:36;;;;;;;18.52;12.60;;;;;;;19.32;59.45;101219.66;4972760;28;117684;-62
2022/06/07 07:17:04;;;;;;;20.48;12.75;;;;;;;19.49;59.46;101226.41;4973168;28;114322;-61
2022/06/07 07:19:33;;;;;;;19.70;12.77;;;;;;;19.70;59.29;101215.00;4972575;28;123345;-61
2022/06/07 07:22:03;;;;;;;20.33;13.07;;;;;;;19.87;59.33;101214.56;4972723;28;122987;-62
2022/06/07 07:24:31;;;;;;;21.02;13.23;;;;;;;20.03;58.95;101223.13;4973306;28;113343;-61
2022/06/07 07:27:02;;;;;;;19.23;12.68;;;;;;;20.19;58.82;101219.22;4973200;28;112859;-62
2022/06/07 07:29:31;;;;;;;18.83;12.88;;;;;;;20.38;58.63;101230.25;4958024;28;123722;-62
2022/06/07 07:32:04;;;;;;;18.10;13.43;;;;;;;20.57;58.71;101224.22;4971676;28;124112;-62
2022/06/07 07:34:40;;;;;;;19.40;13.02;;;;;;;20.74;58.44;101220.19;4972969;28;113166;-62
2022/06/07 07:37:10;;;;;;;19.45;13.00;;;;;;;20.84;57.90;101230.19;4973549;28;113192;-62
2022/06/07 07:39:39;;;;;;;22.50;14.15;;;;;;;20.93;57.52;101230.28;4970164;28;122054;-62
2022/06/07 07:42:10;;;;;;;18.95;13.30;;;;;;;20.98;57.10;101227.19;4985416;28;123016;-62
2022/06/07 07:44:42;;;;;;;19.33;13.43;;;;;;;20.98;56.76;101228.09;4956860;28;113423;-62
2022/06/07 07:47:10;;;;;;;18.80;13.00;;;;;;;20.99;56.70;101226.22;4959073;28;113410;-62
2022/06/07 07:49:41;;;;;;;18.83;13.02;;;;;;;21.03;56.58;101229.53;4970911;28;123119;-61
2022/06/07 07:52:10;;;;;;;17.98;13.07;;;;;;;21.04;56.56;101232.09;4967079;28;122858;-61
2022/06/07 07:54:39;;;;;;;19.10;13.32;;;;;;;21.07;56.51;101218.34;4971171;28;113443;-61
2022/06/07 07:57:09;;;;;;;18.35;13.68;;;;;;;21.16;56.74;101230.22;4963228;28;112858;-61
2022/06/07 07:59:43;;;;;;;20.83;14.63;;;;;;;21.27;56.82;101237.41;4969730;28;123127;-62
2022/06/07 08:02:18;;;;;;;19.08;13.90;;;;;;;21.31;55.89;101230.75;4968381;28;123124;-62
2022/06/07 08:04:48;;;;;;;19.98;14.23;;;;;;;21.32;56.02;101235.16;4962591;28;114326;-62
2022/06/07 08:07:16;;;;;;;17.92;14.23;;;;;;;21.30;55.76;101229.03;4972625;28;114116;-62
2022/06/07 08:09:44;;;;;;;20.95;14.63;;;;;;;21.30;55.91;101226.34;4971820;28;123873;-62
2022/06/07 08:12:11;;;;;;;20.83;14.98;;;;;;;21.30;55.67;101231.72;4972572;28;123798;-62
2022/06/07 08:14:38;;;;;;;20.48;15.40;;;;;;;21.31;55.69;101228.06;4966114;28;115028;-61
2022/06/07 08:17:06;;;;;;;20.63;15.20;;;;;;;21.31;55.61;101228.06;4952446;28;114417;-62
2022/06/07 08:19:33;;;;;;;20.40;15.82;;;;;;;21.31;55.55;101228.06;4958020;28;123756;-62
2022/06/07 08:22:00;;;;;;;21.25;15.38;;;;;;;21.32;55.61;101224.38;4960087;28;124006;-61
2022/06/07 08:24:27;;;;;;;21.00;14.55;;;;;;;21.39;55.95;101226.41;4970849;28;114947;-62
2022/06/07 08:26:54;;;;;;;20.60;14.77;;;;;;;21.52;55.98;101226.25;4970475;28;114482;-62
2022/06/07 08:29:22;;;;;;;20.67;14.70;;;;;;;21.64;55.85;101224.34;4962834;28;124749;-61
2022/06/07 08:31:49;;;;;;;18.90;14.60;;;;;;;21.71;55.24;101224.69;4971149;28;123597;-61
2022/06/07 08:39:49;;;;;;;19.55;14.32;;;;;;;21.70;54.71;101222.97;4969124;28;124097;-61
2022/06/07 08:42:32;;;;;;;20.70;14.93;;;;;;;21.69;54.51;101223.97;4970625;28;123959;-62
2022/06/07 08:45:03;;;;;;;17.85;14.52;;;;;;;21.66;54.23;101226.91;4970396;28;113422;-62
2022/06/07 08:48:06;;;;;;;17.50;14.00;;;;;;;21.63;54.17;101222.66;4969014;28;112882;-62
2022/06/07 08:50:39;;;;;;;19.25;15.30;;;;;;;21.66;54.56;101210.75;4955213;28;125022;-62
2022/06/07 08:53:20;;;;;;;20.90;16.30;;;;;;;21.75;54.76;101220.75;4968821;28;123064;-62
2022/06/07 08:55:55;;;;;;;19.85;15.35;;;;;;;21.91;54.68;101223.81;4953174;28;116531;-62
2022/06/07 08:58:26;;;;;;;18.95;14.85;;;;;;;22.07;55.02;101225.19;4963622;28;114912;-62
2022/06/07 09:00:57;;;;;;;20.25;15.07;;;;;;;22.22;54.12;101223.81;4957563;28;123970;-62
2022/06/07 09:03:38;;;;;;;17.60;14.63;;;;;;;22.27;53.73;101227.00;4956854;28;124072;-62
2022/06/07 09:06:22;;;;;;;19.40;15.38;;;;;;;22.30;53.52;101226.75;4950694;28;114308;-62
2022/06/07 09:08:55;;;;;;;17.80;14.90;;;;;;;22.34;53.27;101217.38;4950415;28;114180;-62
2022/06/07 09:14:49;;;;;;;19.00;14.57;;;;;;;22.51;53.32;101217.72;4971797;28;123815;-63
2022/06/07 09:17:38;;;;;;;19.30;14.93;;;;;;;22.67;53.07;101212.63;4956408;28;114839;-62
2022/06/07 09:20:14;;;;;;;17.88;15.20;;;;;;;22.81;53.13;101207.81;4972287;28;115350;-63
2022/06/07 09:22:51;;;;;;;18.73;14.48;;;;;;;22.92;52.59;101204.97;4968865;28;124648;-62
2022/06/07 09:25:46;;;;;;;17.90;14.27;;;;;;;22.98;52.64;101212.53;4972090;28;123965;-62
2022/06/07 09:28:17;;;;;;;19.30;14.60;;;;;;;23.05;52.16;101221.81;4969288;28;114506;-62
2022/06/07 09:30:48;;;;;;;17.48;14.80;;;;;;;23.10;52.35;101218.69;4968711;28;114070;-62
2022/06/07 09:33:23;;;;;;;17.17;15.05;;;;;;;23.13;51.66;101221.97;4967137;28;124784;-62
2022/06/07 09:35:55;;;;;;;16.77;15.07;;;;;;;23.14;51.56;101214.69;4968765;28;124806;-62
2022/06/07 09:38:39;;;;;;;19.20;15.55;;;;;;;23.17;51.52;101213.56;4968478;28;114715;-62
2022/06/07 09:41:37;;;;;;;16.88;15.05;;;;;;;23.18;51.42;101220.69;4964733;28;113620;-62
2022/06/07 09:44:22;;;;;;;16.63;14.93;;;;;;;23.17;51.38;101210.84;4954103;28;123160;-62
2022/06/07 09:46:56;;;;;;;;;;;;;;;23.14;52.00;101212.00;4968891;28;124203;-62
2022/06/07 09:49:30;;;;;;;15.63;14.00;;;;;;;23.17;51.18;101218.97;4969165;28;115552;-62
2022/06/07 09:52:23;;;;;;;16.33;13.63;;;;;;;23.15;51.28;101212.84;4951774;28;114568;-62
2022/06/07 09:54:59;;;;;;;15.10;13.43;;;;;;;23.17;50.79;101208.16;4966342;28;124494;-62
2022/06/07 09:57:32;;;;;;;15.18;13.00;;;;;;;23.19;50.74;101211.56;4969268;28;124049;-62
2022/06/07 10:00:19;;;;;;;14.93;12.90;;;;;;;23.28;51.13;101210.72;4970573;28;114254;-62
2022/06/07 10:03:00;;;;;;;18.60;14.18;;;;;;;23.39;50.78;101202.44;4969140;28;114474;-62
2022/06/07 10:05:51;;;;;;;13.77;12.32;;;;;;;23.50;50.73;101198.75;4961072;28;124315;-63
2022/06/07 10:08:59;;;;;;;14.68;11.32;;;;;;;23.67;50.93;101194.44;4959127;28;124817;-62
2022/06/07 10:11:43;;;;;;;14.45;12.88;;;;;;;23.81;50.21;101194.03;4964518;28;115091;-62
2022/06/07 10:14:22;;;;;;;15.77;11.98;;;;;;;23.96;50.32;101194.41;4968429;28;114507;-62
2022/06/07 10:17:08;;;;;;;13.25;11.60;;;;;;;24.13;50.53;101195.47;4969598;28;123876;-62
2022/06/07 10:19:48;;;;;;;14.50;13.00;;;;;;;24.28;50.20;101188.56;4968689;28;124148;-62
2022/06/07 10:22:43;;;;;;;14.50;12.75;;;;;;;24.44;49.59;101187.03;4969214;28;114384;-62
2022/06/07 10:25:18;;;;;;;16.87;13.60;;;;;;;24.51;49.38;101182.72;4967602;28;113773;-62
2022/06/07 10:28:11;;;;;;;15.07;12.48;;;;;;;24.62;49.47;101184.38;4959176;28;124117;-62
2022/06/07 10:31:02;;;;;;;12.65;11.27;;;;;;;24.74;48.45;101187.75;4962509;28;124569;-62
2022/06/07 10:33:55;;;;;;;13.13;11.88;;;;;;;24.79;48.35;101174.56;4962413;28;114255;-62
2022/06/07 10:36:36;;;;;;;12.88;11.57;;;;;;;24.88;48.91;101173.66;4965703;28;114275;-62
2022/06/07 10:39:38;;;;;;;11.57;10.38;;;;;;;24.98;48.46;101174.44;4963372;28;124688;-62
2022/06/07 10:42:34;;;;;;;11.50;10.40;;;;;;;25.06;48.07;101182.63;4967140;28;123804;-62
2022/06/07 10:45:22;;;;;;;;;;;;;;;25.12;49.19;101174.91;4968467;28;115625;-62
2022/06/07 10:48:32;;;;;;;11.95;10.32;;;;;;;25.21;47.80;101171.25;4957358;28;114833;-62
2022/06/07 10:52:20;;;;;;;10.82;9.70;;;;;;;25.30;47.56;101180.31;4942133;28;123250;-62
2022/06/07 10:54:02;;;;;;;12.50;10.73;;;;;;;25.36;47.16;101172.41;4942516;28;123283;-62
2022/06/07 10:56:35;;;;;;;11.63;10.50;;;;;;;25.37;46.46;101163.28;4945270;28;114367;-62
2022/06/07 10:59:17;;;;;;;11.10;9.95;;;;;;;25.32;45.90;101165.59;4969323;28;114464;-62
2022/06/07 11:01:53;;;;;;;9.75;8.75;;;;;;;25.28;45.79;101175.06;4968636;28;124089;-62
2022/06/07 11:10:35;;;;;;;12.93;10.50;;;;;;;24.86;45.46;101164.81;4966952;28;113399;-62
2022/06/07 11:13:20;;;;;;;12.07;10.88;;;;;;;24.72;46.13;101165.38;4965908;28;123880;-61
2022/06/07 11:16:31;;;;;;;13.35;11.15;;;;;;;24.64;45.70;101167.00;4965971;28;124006;-62
2022/06/07 11:19:03;;;;;;;14.30;10.98;;;;;;;24.57;46.14;101165.91;4981117;28;113306;-62
2022/06/07 11:21:34;;;;;;;12.88;10.85;;;;;;;24.57;46.41;101159.63;4963620;28;114309;-62
2022/06/07 11:24:18;;;;;;;11.25;10.15;;;;;;;24.53;46.12;101164.50;4966899;28;124265;-62
2022/06/07 11:26:55;;;;;;;12.05;10.73;;;;;;;24.47;46.04;101165.09;4967612;28;123012;-63
2022/06/07 11:29:28;;;;;;;14.05;11.23;;;;;;;24.42;46.17;101167.38;4965514;28;114275;-62
2022/06/07 11:31:57;;;;;;;12.13;10.93;;;;;;;24.36;46.52;101168.84;4968492;28;114445;-62
2022/06/07 11:34:35;;;;;;;12.65;11.32;;;;;;;24.37;46.43;101161.56;4966918;28;125534;-63
2022/06/07 11:37:15;;;;;;;11.90;9.98;;;;;;;24.46;46.82;101157.97;4966579;28;124701;-63
2022/06/07 11:39:55;;;;;;;11.90;10.40;;;;;;;24.57;46.85;101165.91;4962754;28;115261;-63
2022/06/07 11:42:28;;;;;;;12.05;10.80;;;;;;;24.66;46.68;101154.16;4968997;28;114848;-62
2022/06/07 11:45:16;;;;;;;10.07;9.07;;;;;;;24.71;46.48;101163.66;4969432;28;124743;-62
2022/06/07 11:47:43;;;;;;;10.95;9.85;;;;;;;24.75;46.26;101162.34;4968790;28;123871;-62
2022/06/07 11:50:27;;;;;;;12.07;9.13;;;;;;;24.76;46.08;101159.47;4969761;28;114209;-62
2022/06/07 11:53:17;;;;;;;8.20;7.40;;;;;;;24.79;45.89;101161.03;4969213;28;113962;-62
2022/06/07 11:55:48;;;;;;;6.32;5.65;;;;;;;24.75;45.65;101156.94;4967458;28;124139;-62
2022/06/07 11:58:15;;;;;;;6.90;5.55;;;;;;;24.70;45.63;101159.25;4969611;28;124312;-62
2022/06/07 12:00:46;;;;;;;7.50;5.35;;;;;;;24.66;45.57;101154.16;4970534;28;115086;-62
2022/06/07 12:03:34;;;;;;;6.75;5.47;;;;;;;24.63;45.85;101154.44;4968405;28;114790;-62